Capt. Reggie Leboeuf — WDC2585 — position and weather

sailwx.info

Track history (hours):
 
Tides and Currents Weather Stations Pressure Air Temp Water Temp Dewpoint Dewpoint Depression Visibility Wind Speed Wind Dir Waves Ship Positions

Capt. Reggie Leboeuf

Owner: Kirby Inland Marine LP, Houston, TX. More information available from US FCC via Universal Licensing System and Coast Guard Vessel Documentation Center.

Last reported at 2017-Oct-19 14:01 UTC. Time now 2017-Oct-19 14:42 UTC.
Position N 30°06' W 093°19'.

Length 207 m; draft 3 m.

Type: Tug. MMSI: 366995280.

Date/timePositionNaut miles runAvg speedWind from/ knotsBaromVisibWave heightAir tempDewpointWater temp
2017-Oct-19 14:01N 30°06' W 093°19'0 0.0
2017-Oct-19 13:30N 30°06' W 093°19'0 0.0
2017-Oct-19 13:01N 30°06' W 093°19'0 0.0
2017-Oct-19 12:31N 30°06' W 093°19'0 0.1
2017-Oct-19 12:00N 30°06' W 093°19'2 3.5
2017-Oct-19 11:31N 30°05' W 093°20'1 2.9
2017-Oct-19 11:00N 30°04' W 093°21'1 2.8
2017-Oct-19 10:31N 30°04' W 093°23'2 3.2
2017-Oct-19 10:00N 30°04' W 093°25'2 4.8
2017-Oct-19 09:30N 30°04' W 093°28'3 5.2
2017-Oct-19 09:00N 30°04' W 093°31'78 3.7
2017-Oct-18 12:05N 29°29' W 094°52'1 5.8
2017-Oct-18 12:00N 29°30' W 094°52'3 5.7
2017-Oct-18 11:30N 29°32' W 094°54'3 6.0
2017-Oct-18 11:00N 29°34' W 094°56'3 6.0
2017-Oct-18 10:30N 29°37' W 094°57'3 6.2
2017-Oct-18 10:00N 29°40' W 094°59'3 5.7
2017-Oct-18 09:30N 29°42' W 095°01'2 5.0
2017-Oct-18 09:00N 29°44' W 095°03'3 5.6
2017-Oct-18 08:30N 29°46' W 095°05'3 6.2
2017-Oct-18 08:00N 29°44' W 095°08'4 5.4
2017-Oct-18 07:18N 29°44' W 095°13'2 5.1
2017-Oct-18 07:00N 29°43' W 095°14'0 0.3
2017-Oct-18 06:31N 29°43' W 095°14'0 0.0
2017-Oct-18 06:00N 29°43' W 095°14'0 0.0
2017-Oct-18 05:30N 29°43' W 095°14'0 0.0
2017-Oct-18 05:01N 29°43' W 095°14'0 0.0
2017-Oct-18 04:30N 29°43' W 095°14'0 0.0
2017-Oct-18 03:59N 29°43' W 095°14'0 0.0
2017-Oct-18 03:30N 29°43' W 095°14'0 0.0
2017-Oct-18 03:00N 29°43' W 095°14'0 0.0
2017-Oct-18 02:24N 29°43' W 095°14'0 0.0
2017-Oct-18 02:00N 29°43' W 095°14'0 0.0
2017-Oct-18 00:21N 29°43' W 095°14'0 0.0
2017-Oct-17 21:46N 29°43' W 095°14'1 2.5
2017-Oct-17 21:22N 29°44' W 095°13'2 4.9
2017-Oct-17 20:59N 29°45' W 095°12'2 4.9
2017-Oct-17 20:31N 29°44' W 095°09'3 4.4
2017-Oct-17 19:48N 29°45' W 095°06'0 0.0
2017-Oct-16 23:26N 29°46' W 095°05'0 0.1
2017-Oct-16 22:34N 29°46' W 095°06'0 2.9
2017-Oct-16 22:27N 29°46' W 095°06'0 0.1
2017-Oct-16 21:33N 29°45' W 095°06'0 0.1
2017-Oct-16 14:26N 29°46' W 095°05'1 0.0
2017-Oct-15 22:32N 29°45' W 095°06'0 0.0
2017-Oct-15 16:31N 29°45' W 095°06'0 0.0
2017-Oct-15 12:02N 29°45' W 095°06'1 2.7
2017-Oct-15 11:40N 29°45' W 095°06'6 0.3
2017-Oct-14 15:22N 29°44' W 095°14'2 6.3
2017-Oct-14 14:59N 29°45' W 095°11'5 6.1
2017-Oct-14 14:10N 29°46' W 095°06'1 0.1
2017-Oct-14 02:01N 29°46' W 095°05'0 6.2
2017-Oct-14 01:59N 29°46' W 095°05'1 0.1
2017-Oct-13 21:18N 29°46' W 095°04'1 0.6
2017-Oct-13 19:27N 29°46' W 095°05'1 1.1
2017-Oct-13 18:47N 29°46' W 095°05'2 6.7
2017-Oct-13 18:30N 29°44' W 095°03'2 0.1
2017-Oct-12 21:40N 29°44' W 095°01'0 0.0
2017-Oct-12 17:06N 29°44' W 095°01'0 0.0
2017-Oct-12 17:00N 29°44' W 095°01'0 0.0
2017-Oct-12 16:30N 29°44' W 095°01'0 0.0
2017-Oct-12 09:18N 29°44' W 095°01'0 0.0
2017-Oct-12 07:17N 29°44' W 095°01'0 0.0
2017-Oct-12 06:56N 29°44' W 095°01'0 0.0
2017-Oct-12 05:22N 29°44' W 095°01'0 0.0
2017-Oct-12 04:58N 29°44' W 095°01'0 0.0
2017-Oct-12 04:04N 29°44' W 095°01'0 0.0
2017-Oct-12 03:04N 29°44' W 095°01'0 0.0
2017-Oct-12 02:43N 29°44' W 095°01'0 0.0
2017-Oct-12 02:22N 29°44' W 095°01'0 0.0
2017-Oct-12 01:31N 29°44' W 095°01'0 0.0
2017-Oct-12 00:58N 29°44' W 095°01'0 0.0
2017-Oct-12 00:09N 29°44' W 095°01'1 3.9
2017-Oct-12 00:01N 29°44' W 095°02'4 1.8
2017-Oct-11 21:58N 29°46' W 095°05'2 1.4
2017-Oct-11 20:19N 29°44' W 095°03'  
Track history (hours):
 
Tides and Currents Weather Stations Pressure Air Temp Water Temp Dewpoint Dewpoint Depression Visibility Wind Speed Wind Dir Waves Ship Positions

Capt. Reggie Leboeuf

Owner: Kirby Inland Marine LP, Houston, TX. More information available from US FCC via Universal Licensing System and Coast Guard Vessel Documentation Center.

Last reported at 2017-Oct-19 14:01 UTC. Time now 2017-Oct-19 14:42 UTC.
Position N 30°06' W 093°19'.

Length 207 m; draft 3 m.

Type: Tug. MMSI: 366995280.

Date/timePositionNaut miles runAvg speedWind from/ knotsBaromVisibWave heightAir tempDewpointWater temp
2017-Oct-19 14:01N 30°06' W 093°19'0 0.0
2017-Oct-19 13:30N 30°06' W 093°19'0 0.0
2017-Oct-19 13:01N 30°06' W 093°19'0 0.0
2017-Oct-19 12:31N 30°06' W 093°19'0 0.1
2017-Oct-19 12:00N 30°06' W 093°19'2 3.5
2017-Oct-19 11:31N 30°05' W 093°20'1 2.9
2017-Oct-19 11:00N 30°04' W 093°21'1 2.8
2017-Oct-19 10:31N 30°04' W 093°23'2 3.2
2017-Oct-19 10:00N 30°04' W 093°25'2 4.8
2017-Oct-19 09:30N 30°04' W 093°28'3 5.2
2017-Oct-19 09:00N 30°04' W 093°31'78 3.7
2017-Oct-18 12:05N 29°29' W 094°52'1 5.8
2017-Oct-18 12:00N 29°30' W 094°52'3 5.7
2017-Oct-18 11:30N 29°32' W 094°54'3 6.0
2017-Oct-18 11:00N 29°34' W 094°56'3 6.0
2017-Oct-18 10:30N 29°37' W 094°57'3 6.2
2017-Oct-18 10:00N 29°40' W 094°59'3 5.7
2017-Oct-18 09:30N 29°42' W 095°01'2 5.0
2017-Oct-18 09:00N 29°44' W 095°03'3 5.6
2017-Oct-18 08:30N 29°46' W 095°05'3 6.2
2017-Oct-18 08:00N 29°44' W 095°08'4 5.4
2017-Oct-18 07:18N 29°44' W 095°13'2 5.1
2017-Oct-18 07:00N 29°43' W 095°14'0 0.3
2017-Oct-18 06:31N 29°43' W 095°14'0 0.0
2017-Oct-18 06:00N 29°43' W 095°14'0 0.0
2017-Oct-18 05:30N 29°43' W 095°14'0 0.0
2017-Oct-18 05:01N 29°43' W 095°14'0 0.0
2017-Oct-18 04:30N 29°43' W 095°14'0 0.0
2017-Oct-18 03:59N 29°43' W 095°14'0 0.0
2017-Oct-18 03:30N 29°43' W 095°14'0 0.0
2017-Oct-18 03:00N 29°43' W 095°14'0 0.0
2017-Oct-18 02:24N 29°43' W 095°14'0 0.0
2017-Oct-18 02:00N 29°43' W 095°14'0 0.0
2017-Oct-18 00:21N 29°43' W 095°14'0 0.0
2017-Oct-17 21:46N 29°43' W 095°14'1 2.5
2017-Oct-17 21:22N 29°44' W 095°13'2 4.9
2017-Oct-17 20:59N 29°45' W 095°12'2 4.9
2017-Oct-17 20:31N 29°44' W 095°09'3 4.4
2017-Oct-17 19:48N 29°45' W 095°06'0 0.0
2017-Oct-16 23:26N 29°46' W 095°05'0 0.1
2017-Oct-16 22:34N 29°46' W 095°06'0 2.9
2017-Oct-16 22:27N 29°46' W 095°06'0 0.1
2017-Oct-16 21:33N 29°45' W 095°06'0 0.1
2017-Oct-16 14:26N 29°46' W 095°05'1 0.0
2017-Oct-15 22:32N 29°45' W 095°06'0 0.0
2017-Oct-15 16:31N 29°45' W 095°06'0 0.0
2017-Oct-15 12:02N 29°45' W 095°06'1 2.7
2017-Oct-15 11:40N 29°45' W 095°06'6 0.3
2017-Oct-14 15:22N 29°44' W 095°14'2 6.3
2017-Oct-14 14:59N 29°45' W 095°11'5 6.1
2017-Oct-14 14:10N 29°46' W 095°06'1 0.1
2017-Oct-14 02:01N 29°46' W 095°05'0 6.2
2017-Oct-14 01:59N 29°46' W 095°05'1 0.1
2017-Oct-13 21:18N 29°46' W 095°04'1 0.6
2017-Oct-13 19:27N 29°46' W 095°05'1 1.1
2017-Oct-13 18:47N 29°46' W 095°05'2 6.7
2017-Oct-13 18:30N 29°44' W 095°03'2 0.1
2017-Oct-12 21:40N 29°44' W 095°01'0 0.0
2017-Oct-12 17:06N 29°44' W 095°01'0 0.0
2017-Oct-12 17:00N 29°44' W 095°01'0 0.0
2017-Oct-12 16:30N 29°44' W 095°01'0 0.0
2017-Oct-12 09:18N 29°44' W 095°01'0 0.0
2017-Oct-12 07:17N 29°44' W 095°01'0 0.0
2017-Oct-12 06:56N 29°44' W 095°01'0 0.0
2017-Oct-12 05:22N 29°44' W 095°01'0 0.0
2017-Oct-12 04:58N 29°44' W 095°01'0 0.0
2017-Oct-12 04:04N 29°44' W 095°01'0 0.0
2017-Oct-12 03:04N 29°44' W 095°01'0 0.0
2017-Oct-12 02:43N 29°44' W 095°01'0 0.0
2017-Oct-12 02:22N 29°44' W 095°01'0 0.0
2017-Oct-12 01:31N 29°44' W 095°01'0 0.0
2017-Oct-12 00:58N 29°44' W 095°01'0 0.0
2017-Oct-12 00:09N 29°44' W 095°01'1 3.9
2017-Oct-12 00:01N 29°44' W 095°02'4 1.8
2017-Oct-11 21:58N 29°46' W 095°05'2 1.4
2017-Oct-11 20:19N 29°44' W 095°03'  

Dump ship's entire track history